createdAt,value
2023-02-19T00:01:08.924Z,9.93
2023-02-19T00:03:36.978Z,9.90
2023-02-19T00:06:05.690Z,9.90
2023-02-19T00:08:33.703Z,9.90
2023-02-19T00:11:05.700Z,9.91
2023-02-19T00:13:36.608Z,9.92
2023-02-19T00:16:14.426Z,9.91
2023-02-19T00:18:42.013Z,9.89
2023-02-19T00:21:09.459Z,9.90
2023-02-19T00:23:36.484Z,9.88
2023-02-19T00:26:17.213Z,9.86
2023-02-19T00:28:44.740Z,9.84
2023-02-19T00:31:18.636Z,9.81
2023-02-19T00:33:46.340Z,9.79
2023-02-19T00:36:13.839Z,9.79
2023-02-19T00:38:42.057Z,9.78
2023-02-19T00:41:19.220Z,9.78
2023-02-19T00:43:46.814Z,9.76
2023-02-19T00:46:13.496Z,9.80
2023-02-19T00:48:39.933Z,9.80
2023-02-19T00:51:06.634Z,9.80
2023-02-19T00:53:33.127Z,9.79
2023-02-19T00:55:59.589Z,9.76
2023-02-19T00:58:26.012Z,9.76
2023-02-19T01:00:52.471Z,9.76
2023-02-19T01:03:18.928Z,9.74
2023-02-19T01:05:45.382Z,9.74
2023-02-19T01:08:11.851Z,9.75
2023-02-19T01:10:38.270Z,9.76
2023-02-19T01:13:04.697Z,9.75
2023-02-19T01:15:33.081Z,9.77
2023-02-19T01:17:59.732Z,9.77
2023-02-19T01:20:27.355Z,9.78
2023-02-19T01:22:53.845Z,9.76
2023-02-19T01:25:20.367Z,9.78
2023-02-19T01:27:46.853Z,9.78
2023-02-19T01:30:13.453Z,9.79
2023-02-19T01:32:40.061Z,9.78
2023-02-19T01:35:06.807Z,9.78
2023-02-19T01:37:33.272Z,9.77
2023-02-19T01:39:59.809Z,9.79
2023-02-19T01:42:26.241Z,9.80
2023-02-19T01:45:18.986Z,9.81
2023-02-19T01:47:47.808Z,9.77
2023-02-19T01:50:14.489Z,9.79
2023-02-19T01:52:41.472Z,9.80
2023-02-19T01:55:12.693Z,9.80
2023-02-19T01:57:43.522Z,9.84
2023-02-19T02:00:12.765Z,9.84
2023-02-19T02:02:41.361Z,9.84
2023-02-19T02:05:15.555Z,9.85
2023-02-19T02:08:00.895Z,9.83
2023-02-19T02:10:27.472Z,9.82
2023-02-19T02:12:58.522Z,9.83
2023-02-19T02:15:35.169Z,9.84
2023-02-19T02:18:28.230Z,9.85
2023-02-19T02:21:16.026Z,9.86
2023-02-19T02:24:12.945Z,9.85
2023-02-19T02:26:55.886Z,9.85
2023-02-19T02:29:41.137Z,9.82
2023-02-19T02:32:15.788Z,9.82
2023-02-19T02:34:58.687Z,9.81
2023-02-19T02:37:28.270Z,9.80
2023-02-19T02:39:58.152Z,9.81
2023-02-19T02:42:27.453Z,9.80
2023-02-19T02:45:16.739Z,9.78
2023-02-19T02:47:57.939Z,9.79
2023-02-19T02:50:29.403Z,9.76
2023-02-19T02:53:19.525Z,9.74
2023-02-19T02:55:49.665Z,9.72
2023-02-19T02:58:17.517Z,9.70
2023-02-19T03:01:07.223Z,9.70
2023-02-19T03:03:37.078Z,9.70
2023-02-19T03:06:07.107Z,9.70
2023-02-19T03:09:05.079Z,9.68
2023-02-19T03:11:52.751Z,9.68
2023-02-19T03:14:44.664Z,9.68
2023-02-19T03:17:39.100Z,9.67
2023-02-19T03:20:11.319Z,9.69
2023-02-19T03:22:39.774Z,9.68
2023-02-19T03:25:40.523Z,9.70
2023-02-19T03:28:11.034Z,9.70
2023-02-19T03:30:44.314Z,9.70
2023-02-19T03:33:18.674Z,9.71
2023-02-19T03:35:51.932Z,9.73
2023-02-19T03:38:57.972Z,9.73
2023-02-19T03:41:33.675Z,9.76
2023-02-19T03:44:07.751Z,9.73
2023-02-19T03:46:42.050Z,9.73
2023-02-19T03:49:14.753Z,9.74
2023-02-19T03:51:50.410Z,9.72
2023-02-19T03:54:34.668Z,9.70
2023-02-19T03:57:06.010Z,9.71
2023-02-19T03:59:43.954Z,9.72
2023-02-19T04:02:19.263Z,9.72
2023-02-19T04:04:53.150Z,9.71
2023-02-19T04:07:20.655Z,9.70
2023-02-19T04:09:51.126Z,9.70
2023-02-19T04:12:19.309Z,9.72
2023-02-19T04:15:00.793Z,9.73
2023-02-19T04:17:33.792Z,9.70
2023-02-19T04:20:03.597Z,9.69
2023-02-19T04:22:31.233Z,9.69
2023-02-19T04:24:57.803Z,9.66
2023-02-19T04:27:24.204Z,9.63
2023-02-19T04:29:50.680Z,9.62
2023-02-19T04:32:17.183Z,9.62
2023-02-19T04:34:43.640Z,9.60
2023-02-19T04:37:10.087Z,9.63
2023-02-19T04:39:36.520Z,9.62
2023-02-19T04:42:03.054Z,9.62
2023-02-19T04:44:29.611Z,9.61
2023-02-19T04:46:56.171Z,9.62
2023-02-19T04:49:22.659Z,9.60
2023-02-19T04:51:49.093Z,9.60
2023-02-19T04:54:15.539Z,9.57
2023-02-19T04:56:42.026Z,9.57
2023-02-19T04:59:08.522Z,9.55
2023-02-19T05:01:35.031Z,9.54
2023-02-19T05:04:01.615Z,9.54
2023-02-19T05:06:28.133Z,9.53
2023-02-19T05:08:54.497Z,9.52
2023-02-19T05:11:21.077Z,9.50
2023-02-19T05:13:47.563Z,9.50
2023-02-19T05:16:16.045Z,9.48
2023-02-19T05:18:44.864Z,9.48
2023-02-19T05:21:12.844Z,9.47
2023-02-19T05:23:39.629Z,9.47
2023-02-19T05:26:17.889Z,9.46
2023-02-19T05:28:49.863Z,9.44
2023-02-19T05:31:16.835Z,9.45
2023-02-19T05:33:45.622Z,9.43
2023-02-19T05:36:13.763Z,9.44
2023-02-19T05:38:41.470Z,9.44
2023-02-19T05:41:12.572Z,9.41
2023-02-19T05:43:40.848Z,9.40
2023-02-19T05:46:08.241Z,9.39
2023-02-19T05:48:34.872Z,9.37
2023-02-19T05:51:03.896Z,9.38
2023-02-19T05:53:31.006Z,9.39
2023-02-19T05:55:57.553Z,9.37
2023-02-19T05:58:24.065Z,9.38
2023-02-19T06:00:50.554Z,9.37
2023-02-19T06:03:16.964Z,9.34
2023-02-19T06:05:43.408Z,9.34
2023-02-19T06:08:13.266Z,9.34
2023-02-19T06:10:42.676Z,9.34
2023-02-19T06:13:10.060Z,9.37
2023-02-19T06:15:37.196Z,9.36
2023-02-19T06:18:04.081Z,9.35
2023-02-19T06:20:30.661Z,9.34
2023-02-19T06:22:57.687Z,9.32
2023-02-19T06:25:24.136Z,9.33
2023-02-19T06:27:50.592Z,9.36
2023-02-19T06:30:17.115Z,9.35
2023-02-19T06:32:43.584Z,9.34
2023-02-19T06:35:09.981Z,9.32
2023-02-19T06:37:36.434Z,9.30
2023-02-19T06:40:03.068Z,9.30
2023-02-19T06:42:32.796Z,9.28
2023-02-19T06:44:59.224Z,9.26
2023-02-19T06:47:25.634Z,9.24
2023-02-19T06:49:52.078Z,9.21
2023-02-19T06:52:18.535Z,9.18
2023-02-19T06:54:44.950Z,9.17
2023-02-19T06:57:11.361Z,9.16
2023-02-19T06:59:37.775Z,9.14
2023-02-19T07:02:04.219Z,9.14
2023-02-19T07:04:30.739Z,9.14
2023-02-19T07:06:57.341Z,9.13
2023-02-19T07:09:25.399Z,9.15
2023-02-19T07:11:52.343Z,9.14
2023-02-19T07:14:19.050Z,9.14
2023-02-19T07:16:47.385Z,9.14
2023-02-19T07:19:15.087Z,9.15
2023-02-19T07:21:42.337Z,9.15
2023-02-19T07:24:10.192Z,9.16
2023-02-19T07:26:36.702Z,9.15
2023-02-19T07:29:03.983Z,9.16
2023-02-19T07:31:30.691Z,9.13
2023-02-19T07:33:57.219Z,9.13
2023-02-19T07:36:25.354Z,9.13
2023-02-19T07:38:56.398Z,9.12
2023-02-19T07:41:24.247Z,9.11
2023-02-19T07:43:51.747Z,9.10
2023-02-19T07:46:18.324Z,9.10
2023-02-19T07:48:45.178Z,9.10
2023-02-19T07:51:14.135Z,9.08
2023-02-19T07:53:40.672Z,9.05
2023-02-19T07:56:08.480Z,9.03
2023-02-19T07:58:35.845Z,9.04
2023-02-19T08:01:08.830Z,9.03
2023-02-19T08:03:36.487Z,9.02
2023-02-19T08:06:03.614Z,9.01
2023-02-19T08:08:30.155Z,9.02
2023-02-19T08:11:18.965Z,9.04
2023-02-19T08:13:49.116Z,9.04
2023-02-19T08:16:26.626Z,9.04
2023-02-19T08:18:56.428Z,9.05
2023-02-19T08:21:22.981Z,9.07
2023-02-19T08:23:51.128Z,9.08
2023-02-19T08:26:18.036Z,9.10
2023-02-19T08:28:44.514Z,9.11
2023-02-19T08:31:12.226Z,9.12
2023-02-19T08:33:40.100Z,9.11
2023-02-19T08:36:09.383Z,9.12
2023-02-19T08:38:36.826Z,9.11
2023-02-19T08:41:08.312Z,9.12
2023-02-19T08:43:35.539Z,9.11
2023-02-19T08:46:02.435Z,9.13
2023-02-19T08:48:28.961Z,9.15
2023-02-19T08:50:57.432Z,9.17
2023-02-19T08:53:24.648Z,9.17
2023-02-19T08:55:51.687Z,9.17
2023-02-19T08:58:18.482Z,9.17
2023-02-19T09:00:45.160Z,9.17
2023-02-19T09:03:11.660Z,9.20
2023-02-19T09:05:39.052Z,9.22
2023-02-19T09:08:05.585Z,9.27
2023-02-19T09:10:33.396Z,9.29
2023-02-19T09:12:59.884Z,9.33
2023-02-19T09:15:28.490Z,9.38
2023-02-19T09:17:55.104Z,9.40
2023-02-19T09:20:21.590Z,9.40
2023-02-19T09:22:48.008Z,9.39
2023-02-19T09:25:14.697Z,9.39
2023-02-19T09:27:41.202Z,9.44
2023-02-19T09:30:28.294Z,9.45
2023-02-19T09:32:54.771Z,9.45
2023-02-19T09:35:21.241Z,9.44
2023-02-19T09:37:47.705Z,9.42
2023-02-19T09:40:14.848Z,9.39
2023-02-19T09:42:43.194Z,9.32
2023-02-19T09:45:19.948Z,9.27
2023-02-19T09:47:46.456Z,9.32
2023-02-19T09:50:16.955Z,9.33
2023-02-19T09:52:51.949Z,9.33
2023-02-19T09:55:30.886Z,9.33
2023-02-19T09:58:00.245Z,9.25
2023-02-19T10:00:31.485Z,9.16
2023-02-19T10:03:05.464Z,9.10
2023-02-19T10:05:33.800Z,9.07
2023-02-19T10:08:02.192Z,9.00
2023-02-19T10:10:37.168Z,9.03
2023-02-19T10:13:22.127Z,9.04
2023-02-19T10:15:54.308Z,9.05
2023-02-19T10:18:24.638Z,9.04
2023-02-19T10:20:53.000Z,9.06
2023-02-19T10:23:20.274Z,9.08
2023-02-19T10:25:54.185Z,9.15
2023-02-19T10:28:24.487Z,9.16
2023-02-19T10:30:54.482Z,9.22
2023-02-19T10:33:21.519Z,9.22
2023-02-19T10:35:58.556Z,9.25
2023-02-19T10:38:31.231Z,9.26
2023-02-19T10:41:05.545Z,9.34
2023-02-19T10:43:37.025Z,9.41
2023-02-19T10:46:08.584Z,9.51
2023-02-19T10:48:39.816Z,9.54
2023-02-19T10:51:09.385Z,9.55
2023-02-19T10:53:47.826Z,9.56
2023-02-19T10:56:29.735Z,9.59
2023-02-19T10:59:15.877Z,9.61
2023-02-19T11:02:03.955Z,9.58
2023-02-19T11:04:35.005Z,9.54
2023-02-19T11:07:15.589Z,9.48
2023-02-19T11:09:45.562Z,9.41
2023-02-19T11:12:14.618Z,9.34
2023-02-19T11:14:44.928Z,9.30
2023-02-19T11:17:22.855Z,9.30
2023-02-19T11:19:53.465Z,9.33
2023-02-19T11:22:35.495Z,9.40
2023-02-19T11:25:14.544Z,9.42
2023-02-19T11:28:20.617Z,9.47
2023-02-19T11:30:47.808Z,9.48
2023-02-19T11:33:14.144Z,9.48
2023-02-19T11:35:40.682Z,9.40
2023-02-19T11:38:16.454Z,9.25
2023-02-19T11:41:14.072Z,9.18
2023-02-19T11:44:07.770Z,9.13
2023-02-19T11:46:47.723Z,9.09
2023-02-19T11:49:45.221Z,9.04
2023-02-19T11:52:11.719Z,9.02
2023-02-19T11:54:40.978Z,9.04
2023-02-19T11:57:25.597Z,9.03
2023-02-19T12:00:13.912Z,9.01
2023-02-19T12:03:04.325Z,9.08
2023-02-19T12:05:45.142Z,9.19
2023-02-19T12:08:23.229Z,9.16
2023-02-19T12:11:11.358Z,9.23
2023-02-19T12:13:52.981Z,9.19
2023-02-19T12:16:44.131Z,9.22
2023-02-19T12:19:33.305Z,9.21
2023-02-19T12:22:23.324Z,9.20
2023-02-19T12:25:16.071Z,9.19
2023-02-19T12:28:20.554Z,9.22
2023-02-19T12:31:15.058Z,9.24
2023-02-19T12:34:00.740Z,9.27
2023-02-19T12:36:50.983Z,9.27
2023-02-19T12:39:34.212Z,9.33
2023-02-19T12:42:22.585Z,9.38
2023-02-19T12:44:56.051Z,9.41
2023-02-19T12:47:28.357Z,9.47
2023-02-19T12:50:06.425Z,9.49
2023-02-19T12:52:40.259Z,9.51
2023-02-19T12:55:24.628Z,9.53
2023-02-19T12:57:52.908Z,9.60
2023-02-19T13:00:31.538Z,9.63
2023-02-19T13:03:20.957Z,9.63
2023-02-19T13:06:15.653Z,9.60
2023-02-19T13:09:08.560Z,9.57
2023-02-19T13:11:47.574Z,9.57
2023-02-19T13:14:24.211Z,9.56
2023-02-19T13:16:55.935Z,9.56
2023-02-19T13:19:22.419Z,9.50
2023-02-19T13:22:16.621Z,9.50
2023-02-19T13:24:45.606Z,9.46
2023-02-19T13:27:17.934Z,9.46
2023-02-19T13:30:08.843Z,9.46
2023-02-19T13:32:55.387Z,9.39
2023-02-19T13:35:52.712Z,9.39
2023-02-19T13:38:19.745Z,9.40
2023-02-19T13:41:04.529Z,9.40
2023-02-19T13:43:35.652Z,9.42
2023-02-19T13:46:06.395Z,9.44
2023-02-19T13:48:38.414Z,9.48
2023-02-19T13:51:18.673Z,9.48
2023-02-19T13:53:45.079Z,9.51
2023-02-19T13:56:30.040Z,9.53
2023-02-19T13:59:15.412Z,9.57
2023-02-19T14:01:54.184Z,9.57
2023-02-19T14:04:55.452Z,9.59
2023-02-19T14:07:35.394Z,9.62
2023-02-19T14:10:02.828Z,9.63
2023-02-19T14:12:34.351Z,9.66
2023-02-19T14:15:41.812Z,9.72
2023-02-19T14:18:43.988Z,9.73
2023-02-19T14:21:37.312Z,9.74
2023-02-19T14:24:05.224Z,9.80
2023-02-19T14:26:34.005Z,9.76
2023-02-19T14:29:17.953Z,9.76
2023-02-19T14:31:46.019Z,9.75
2023-02-19T14:34:22.797Z,9.74
2023-02-19T14:37:01.085Z,9.71
2023-02-19T14:39:31.494Z,9.69
2023-02-19T14:42:04.695Z,9.67
2023-02-19T14:45:00.136Z,9.66
2023-02-19T14:47:32.216Z,9.67
2023-02-19T14:50:04.184Z,9.63
2023-02-19T14:52:40.893Z,9.58
2023-02-19T14:55:14.805Z,9.46
2023-02-19T14:57:45.508Z,9.40
2023-02-19T15:00:34.985Z,9.34
2023-02-19T15:03:02.643Z,9.30
2023-02-19T15:05:33.773Z,9.27
2023-02-19T15:08:08.910Z,9.24
2023-02-19T15:10:36.513Z,9.21
2023-02-19T15:13:11.766Z,9.21
2023-02-19T15:15:43.348Z,9.23
2023-02-19T15:18:19.613Z,9.19
2023-02-19T15:20:46.407Z,9.20
2023-02-19T15:23:23.607Z,9.21
2023-02-19T15:25:50.901Z,9.23
2023-02-19T15:28:26.409Z,9.22
2023-02-19T15:30:58.988Z,9.23
2023-02-19T15:33:27.435Z,9.23
2023-02-19T15:36:02.625Z,9.26
2023-02-19T15:38:29.562Z,9.25
2023-02-19T15:40:57.768Z,9.25
2023-02-19T15:43:50.729Z,9.24
2023-02-19T15:46:24.274Z,9.23
2023-02-19T15:49:03.004Z,9.23
2023-02-19T15:51:55.099Z,9.22
2023-02-19T15:54:30.628Z,9.17
2023-02-19T15:57:03.972Z,9.14
2023-02-19T15:59:46.381Z,9.08
2023-02-19T16:02:14.336Z,9.04
2023-02-19T16:04:44.721Z,9.03
2023-02-19T16:07:34.112Z,9.02
2023-02-19T16:10:22.522Z,8.99
2023-02-19T16:12:57.032Z,9.00
2023-02-19T16:15:23.556Z,8.98
2023-02-19T16:17:50.045Z,8.98
2023-02-19T16:20:24.795Z,9.00
2023-02-19T16:22:52.293Z,8.97
2023-02-19T16:25:37.487Z,8.96
2023-02-19T16:28:24.769Z,8.97
2023-02-19T16:30:59.552Z,8.96
2023-02-19T16:33:48.648Z,8.98
2023-02-19T16:36:37.835Z,8.98
2023-02-19T16:39:15.526Z,8.98
2023-02-19T16:41:45.055Z,9.00
2023-02-19T16:44:20.798Z,8.98
2023-02-19T16:46:49.210Z,8.98
2023-02-19T16:49:16.119Z,8.95
2023-02-19T16:51:45.163Z,8.94
2023-02-19T16:54:12.623Z,8.86
2023-02-19T16:56:39.434Z,8.84
2023-02-19T16:59:09.471Z,8.78
2023-02-19T17:01:37.082Z,8.73
2023-02-19T17:04:09.847Z,8.70
2023-02-19T17:06:39.867Z,8.67
2023-02-19T17:09:08.326Z,8.63
2023-02-19T17:11:35.610Z,8.64
2023-02-19T17:14:02.465Z,8.61
2023-02-19T17:16:32.071Z,8.57
2023-02-19T17:18:58.841Z,8.56
2023-02-19T17:21:27.746Z,8.53
2023-02-19T17:23:55.725Z,8.50
2023-02-19T17:26:25.097Z,8.50
2023-02-19T17:28:51.710Z,8.50
2023-02-19T17:31:18.439Z,8.48
2023-02-19T17:33:45.529Z,8.48
2023-02-19T17:36:19.078Z,8.45
2023-02-19T17:38:45.711Z,8.42
2023-02-19T17:41:12.349Z,8.41
2023-02-19T17:43:39.161Z,8.38
2023-02-19T17:46:05.689Z,8.37
2023-02-19T17:48:32.160Z,8.36
2023-02-19T17:50:58.611Z,8.33
2023-02-19T17:53:25.060Z,8.34
2023-02-19T17:55:51.533Z,8.33
2023-02-19T17:58:18.026Z,8.30
2023-02-19T18:00:44.462Z,8.29
2023-02-19T18:03:11.136Z,8.23
2023-02-19T18:05:37.565Z,8.17
2023-02-19T18:08:03.995Z,8.13
2023-02-19T18:10:30.497Z,8.12
2023-02-19T18:12:57.069Z,8.11
2023-02-19T18:15:26.770Z,8.10
2023-02-19T18:17:54.366Z,8.09
2023-02-19T18:20:24.168Z,8.08
2023-02-19T18:22:51.342Z,8.10
2023-02-19T18:25:19.021Z,8.08
2023-02-19T18:27:46.221Z,8.07
2023-02-19T18:30:16.708Z,8.06
2023-02-19T18:32:43.471Z,8.05
2023-02-19T18:35:09.950Z,8.03
2023-02-19T18:37:36.380Z,8.02
2023-02-19T18:40:04.692Z,8.00
2023-02-19T18:42:31.422Z,7.99
2023-02-19T18:44:58.022Z,7.96
2023-02-19T18:47:27.881Z,7.89
2023-02-19T18:49:57.139Z,7.86
2023-02-19T18:52:25.121Z,7.86
2023-02-19T18:54:53.478Z,7.83
2023-02-19T18:57:22.196Z,7.80
2023-02-19T18:59:49.233Z,7.75
2023-02-19T19:02:17.173Z,7.71
2023-02-19T19:04:43.720Z,7.67
2023-02-19T19:07:10.770Z,7.64
2023-02-19T19:09:37.398Z,7.62
2023-02-19T19:12:04.356Z,7.60
2023-02-19T19:14:30.817Z,7.61
2023-02-19T19:16:57.257Z,7.62
2023-02-19T19:19:24.046Z,7.59
2023-02-19T19:21:55.221Z,7.59
2023-02-19T19:24:24.169Z,7.58
2023-02-19T19:26:51.484Z,7.56
2023-02-19T19:29:20.384Z,7.55
2023-02-19T19:31:49.825Z,7.56
2023-02-19T19:34:17.288Z,7.56
2023-02-19T19:36:44.750Z,7.57
2023-02-19T19:39:11.551Z,7.57
2023-02-19T19:41:37.976Z,7.56
2023-02-19T19:44:06.042Z,7.59
2023-02-19T19:46:33.014Z,7.57
2023-02-19T19:48:59.799Z,7.56
2023-02-19T19:51:34.184Z,7.56
2023-02-19T19:54:03.120Z,7.55
2023-02-19T19:56:30.202Z,7.55
2023-02-19T19:58:56.643Z,7.56
2023-02-19T20:01:23.668Z,7.56
2023-02-19T20:03:53.607Z,7.55
2023-02-19T20:06:27.641Z,7.57
2023-02-19T20:08:54.552Z,7.55
2023-02-19T20:11:21.074Z,7.56
2023-02-19T20:13:47.568Z,7.55
2023-02-19T20:16:14.615Z,7.55
2023-02-19T20:18:41.239Z,7.52
2023-02-19T20:21:09.444Z,7.52
2023-02-19T20:23:38.236Z,7.50
2023-02-19T20:26:05.450Z,7.49
2023-02-19T20:28:32.864Z,7.48
2023-02-19T20:30:59.437Z,7.44
2023-02-19T20:33:26.015Z,7.42
2023-02-19T20:35:52.640Z,7.40
2023-02-19T20:38:19.136Z,7.34
2023-02-19T20:40:45.725Z,7.31
2023-02-19T20:43:12.200Z,7.29
2023-02-19T20:45:39.195Z,7.26
2023-02-19T20:48:05.680Z,7.21
2023-02-19T20:50:32.164Z,7.19
2023-02-19T20:52:58.585Z,7.17
2023-02-19T20:55:25.870Z,7.13
2023-02-19T20:57:52.358Z,7.09
2023-02-19T21:00:19.392Z,7.07
2023-02-19T21:02:46.011Z,7.04
2023-02-19T21:05:13.440Z,7.02
2023-02-19T21:07:39.926Z,6.99
2023-02-19T21:10:06.949Z,6.93
2023-02-19T21:12:33.851Z,6.87
2023-02-19T21:15:00.388Z,6.87
2023-02-19T21:17:26.952Z,6.85
2023-02-19T21:19:53.486Z,6.78
2023-02-19T21:22:20.047Z,6.73
2023-02-19T21:24:51.909Z,6.71
2023-02-19T21:27:19.431Z,6.67
2023-02-19T21:29:46.601Z,6.66
2023-02-19T21:32:13.220Z,6.64
2023-02-19T21:34:40.312Z,6.62
2023-02-19T21:37:06.767Z,6.60
2023-02-19T21:39:34.633Z,6.61
2023-02-19T21:42:01.664Z,6.56
2023-02-19T21:44:28.171Z,6.56
2023-02-19T21:46:54.621Z,6.54
2023-02-19T21:49:21.096Z,6.47
2023-02-19T21:51:50.540Z,6.49
2023-02-19T21:54:21.582Z,6.47
2023-02-19T21:56:48.680Z,6.45
2023-02-19T21:59:15.193Z,6.41
2023-02-19T22:01:43.142Z,6.39
2023-02-19T22:04:13.980Z,6.36
2023-02-19T22:06:40.963Z,6.33
2023-02-19T22:09:08.530Z,6.32
2023-02-19T22:11:35.090Z,6.35
2023-02-19T22:14:01.721Z,6.31
2023-02-19T22:16:28.786Z,6.29
2023-02-19T22:18:57.480Z,6.33
2023-02-19T22:21:26.870Z,6.33
2023-02-19T22:23:54.576Z,6.28
2023-02-19T22:26:30.388Z,6.27
2023-02-19T22:28:59.205Z,6.21
2023-02-19T22:31:27.754Z,6.19
2023-02-19T22:33:56.429Z,6.15
2023-02-19T22:36:25.986Z,6.15
2023-02-19T22:38:52.864Z,6.19
2023-02-19T22:41:20.636Z,6.16
2023-02-19T22:43:47.525Z,6.14
2023-02-19T22:46:16.948Z,6.15
2023-02-19T22:48:43.467Z,6.10
2023-02-19T22:51:13.135Z,6.10
2023-02-19T22:53:59.310Z,6.06
2023-02-19T22:56:27.752Z,6.02
2023-02-19T22:58:57.134Z,6.03
2023-02-19T23:01:24.568Z,6.00
2023-02-19T23:03:56.203Z,5.96
2023-02-19T23:06:31.491Z,5.95
2023-02-19T23:09:02.648Z,5.91
2023-02-19T23:11:31.883Z,5.89
2023-02-19T23:13:59.146Z,5.82
2023-02-19T23:16:25.763Z,5.80
2023-02-19T23:18:52.443Z,5.68
2023-02-19T23:21:19.958Z,5.70
2023-02-19T23:23:47.112Z,5.65
2023-02-19T23:26:15.748Z,5.64
2023-02-19T23:28:43.873Z,5.64
2023-02-19T23:31:11.356Z,5.56
2023-02-19T23:33:38.355Z,5.57
2023-02-19T23:36:05.794Z,5.56
2023-02-19T23:38:32.190Z,5.58
2023-02-19T23:40:59.156Z,5.54
2023-02-19T23:43:25.590Z,5.54
2023-02-19T23:45:52.139Z,5.56
2023-02-19T23:48:18.658Z,5.47
2023-02-19T23:50:45.286Z,5.48
2023-02-19T23:53:11.963Z,5.45
2023-02-19T23:55:38.444Z,5.46
2023-02-19T23:58:04.925Z,5.36
